createdAt,value
2019-04-10T00:03:48.305Z,3.83
2019-04-10T00:08:54.723Z,3.69
2019-04-10T00:14:00.805Z,3.75
2019-04-10T00:19:07.048Z,3.73
2019-04-10T00:24:13.557Z,3.58
2019-04-10T00:29:20.314Z,3.61
2019-04-10T00:34:26.434Z,3.52
2019-04-10T00:39:32.798Z,3.24
2019-04-10T00:44:39.664Z,3.16
2019-04-10T00:49:46.152Z,3.14
2019-04-10T00:54:52.158Z,3.22
2019-04-10T00:59:58.873Z,3.04
2019-04-10T01:05:05.126Z,3.10
2019-04-10T01:10:12.213Z,3.09
2019-04-10T01:15:19.068Z,3.20
2019-04-10T01:20:25.824Z,3.25
2019-04-10T01:25:32.552Z,3.33
2019-04-10T01:30:38.563Z,3.52
2019-04-10T01:35:46.658Z,3.54
2019-04-10T01:40:53.139Z,3.54
2019-04-10T01:46:00.309Z,3.49
2019-04-10T01:51:06.727Z,3.65
2019-04-10T01:56:22.052Z,3.60
2019-04-10T02:01:22.307Z,3.46
2019-04-10T02:06:29.381Z,3.41
2019-04-10T02:11:37.611Z,3.28
2019-04-10T02:16:43.501Z,3.37
2019-04-10T02:21:49.756Z,3.33
2019-04-10T02:26:56.135Z,3.21
2019-04-10T02:32:02.268Z,3.26
2019-04-10T02:37:08.747Z,3.09
2019-04-10T02:42:16.076Z,3.30
2019-04-10T02:47:23.082Z,3.14
2019-04-10T02:52:30.695Z,3.22
2019-04-10T02:57:37.465Z,3.00
2019-04-10T03:02:45.334Z,3.26
2019-04-10T03:07:52.637Z,3.33
2019-04-10T03:12:59.317Z,3.50
2019-04-10T03:18:07.064Z,3.35
2019-04-10T03:23:13.519Z,3.37
2019-04-10T03:28:19.808Z,3.21
2019-04-10T03:33:30.512Z,3.23
2019-04-10T03:38:47.348Z,2.81
2019-04-10T03:43:43.735Z,3.26
2019-04-10T03:48:49.543Z,3.16
2019-04-10T03:53:56.472Z,3.26
2019-04-10T03:59:02.324Z,3.18
2019-04-10T04:04:09.614Z,3.19
2019-04-10T04:09:16.216Z,3.06
2019-04-10T04:14:22.414Z,3.14
2019-04-10T04:19:28.567Z,2.99
2019-04-10T04:24:35.795Z,3.09
2019-04-10T04:29:41.498Z,3.21
2019-04-10T04:34:47.514Z,3.10
2019-04-10T04:39:54.316Z,3.27
2019-04-10T04:45:00.793Z,3.33
2019-04-10T04:50:07.702Z,3.31
2019-04-10T04:55:14.217Z,3.40
2019-04-10T05:00:20.248Z,3.55
2019-04-10T05:05:27.139Z,3.45
2019-04-10T05:10:33.529Z,3.36
2019-04-10T05:15:39.491Z,3.35
2019-04-10T05:20:49.958Z,3.53
2019-04-10T05:25:53.863Z,3.43
2019-04-10T05:31:00.916Z,3.32
2019-04-10T05:36:07.011Z,3.11
2019-04-10T05:41:13.376Z,3.24
2019-04-10T05:46:19.380Z,3.33
2019-04-10T05:51:25.425Z,3.36
2019-04-10T05:56:31.335Z,3.44
2019-04-10T06:01:40.212Z,3.29
2019-04-10T06:06:44.962Z,3.51
2019-04-10T06:11:50.770Z,3.51
2019-04-10T06:16:59.396Z,3.57
2019-04-10T06:22:05.334Z,3.55
2019-04-10T06:27:12.291Z,3.22
2019-04-10T06:32:19.282Z,3.65
2019-04-10T06:37:26.286Z,3.69
2019-04-10T06:42:44.845Z,3.75
2019-04-10T06:47:40.416Z,3.76
2019-04-10T06:52:47.162Z,3.81
2019-04-10T06:57:57.204Z,4.15
2019-04-10T07:03:01.052Z,4.13
2019-04-10T07:08:16.038Z,4.59
2019-04-10T07:13:17.542Z,4.50
2019-04-10T07:18:24.238Z,4.77
2019-04-10T07:23:31.997Z,4.67
2019-04-10T07:28:41.670Z,4.58
2019-04-10T07:33:50.132Z,4.25
2019-04-10T07:38:55.711Z,4.48
2019-04-10T07:44:01.646Z,4.99
2019-04-10T07:49:08.554Z,4.53
2019-04-10T07:54:18.315Z,4.60
2019-04-10T07:59:21.767Z,4.76
2019-04-10T08:04:27.658Z,4.93
2019-04-10T08:09:33.541Z,5.21
2019-04-10T08:14:39.921Z,5.71
2019-04-10T08:19:46.180Z,5.78
2019-04-10T08:24:51.970Z,5.84
2019-04-10T08:29:59.013Z,6.09
2019-04-10T08:35:06.978Z,6.23
2019-04-10T08:40:13.572Z,6.62
2019-04-10T08:45:20.903Z,6.47
2019-04-10T08:50:28.015Z,7.14
2019-04-10T08:55:34.980Z,6.77
2019-04-10T09:00:40.944Z,7.04
2019-04-10T09:05:46.989Z,7.35
2019-04-10T09:10:53.098Z,6.66
2019-04-10T09:15:58.890Z,6.54
2019-04-10T09:21:05.020Z,7.02
2019-04-10T09:26:11.398Z,7.01
2019-04-10T09:31:19.715Z,6.52
2019-04-10T09:36:26.982Z,6.80
2019-04-10T09:41:34.109Z,6.73
2019-04-10T09:46:40.810Z,6.81
2019-04-10T09:51:48.181Z,6.49
2019-04-10T09:56:54.868Z,6.59
2019-04-10T10:02:00.912Z,6.70
2019-04-10T10:07:08.252Z,7.44
2019-04-10T10:12:14.094Z,7.18
2019-04-10T10:17:20.312Z,7.04
2019-04-10T10:22:27.293Z,7.63
2019-04-10T10:27:34.263Z,7.19
2019-04-10T10:32:42.121Z,7.53
2019-04-10T10:37:48.502Z,7.64
2019-04-10T10:42:54.478Z,8.07
2019-04-10T10:48:01.285Z,8.16
2019-04-10T10:53:08.103Z,8.37
2019-04-10T10:58:14.018Z,8.34
2019-04-10T11:03:20.414Z,8.41
2019-04-10T11:08:26.959Z,8.41
2019-04-10T11:13:33.215Z,9.50
2019-04-10T11:18:40.380Z,9.07
2019-04-10T11:23:46.867Z,9.56
2019-04-10T11:28:53.096Z,8.98
2019-04-10T11:34:00.099Z,8.59
2019-04-10T11:39:17.093Z,8.64
2019-04-10T11:44:19.213Z,8.37
2019-04-10T11:49:23.850Z,9.42
2019-04-10T11:54:32.247Z,9.61
2019-04-10T11:59:38.967Z,8.97
2019-04-10T12:04:53.001Z,10.01
2019-04-10T12:15:02.037Z,10.41
2019-04-10T12:20:11.117Z,9.89
2019-04-10T12:25:17.116Z,9.83
2019-04-10T12:30:23.530Z,9.60
2019-04-10T12:35:29.810Z,9.60
2019-04-10T12:40:38.690Z,9.84
2019-04-10T12:45:44.405Z,10.58
2019-04-10T12:50:50.460Z,10.36
2019-04-10T12:55:56.474Z,10.58
2019-04-10T13:01:03.056Z,9.27
2019-04-10T13:06:09.546Z,9.66
2019-04-10T13:11:16.261Z,10.26
2019-04-10T13:16:22.202Z,9.85
2019-04-10T13:21:28.510Z,9.63
2019-04-10T13:26:34.585Z,9.25
2019-04-10T13:31:40.645Z,10.24
2019-04-10T13:36:46.614Z,9.93
2019-04-10T13:41:52.608Z,10.74
2019-04-10T13:46:59.445Z,9.66
2019-04-10T13:52:05.811Z,9.17
2019-04-10T13:57:11.917Z,9.37
2019-04-10T14:02:32.250Z,9.40
2019-04-10T14:07:40.156Z,10.14
2019-04-10T14:12:47.146Z,10.38
2019-04-10T14:17:55.766Z,10.13
2019-04-10T14:23:15.747Z,9.53
2019-04-10T14:28:23.173Z,9.53
2019-04-10T14:33:30.400Z,9.88
2019-04-10T14:38:36.452Z,10.27
2019-04-10T14:43:43.818Z,10.05
2019-04-10T14:48:50.180Z,10.33
2019-04-10T14:53:56.054Z,9.56
2019-04-10T14:59:02.132Z,9.56
2019-04-10T15:04:08.829Z,9.51
2019-04-10T15:09:25.314Z,9.35
2019-04-10T15:14:27.818Z,9.29
2019-04-10T15:19:34.347Z,9.44
2019-04-10T15:24:40.359Z,9.59
2019-04-10T15:29:47.206Z,9.57
2019-04-10T15:34:53.685Z,9.18
2019-04-10T15:40:13.487Z,9.25
2019-04-10T15:45:07.345Z,9.12
2019-04-10T15:50:13.859Z,9.08
2019-04-10T15:55:19.818Z,9.37
2019-04-10T16:00:25.813Z,9.38
2019-04-10T16:05:33.373Z,9.19
2019-04-10T16:10:41.347Z,9.04
2019-04-10T16:15:50.477Z,9.14
2019-04-10T16:20:57.263Z,9.01
2019-04-10T16:26:04.846Z,9.22
2019-04-10T16:31:11.003Z,8.45
2019-04-10T16:36:17.199Z,8.84
2019-04-10T16:41:26.327Z,8.23
2019-04-10T16:46:31.990Z,8.47
2019-04-10T16:51:38.531Z,8.09
2019-04-10T16:56:45.617Z,8.31
2019-04-10T17:01:53.209Z,7.97
2019-04-10T17:06:59.175Z,7.97
2019-04-10T17:12:06.579Z,7.85
2019-04-10T17:17:13.013Z,7.62
2019-04-10T17:22:30.760Z,7.53
2019-04-10T17:27:27.526Z,7.45
2019-04-10T17:32:36.317Z,7.12
2019-04-10T17:37:42.739Z,6.93
2019-04-10T17:42:48.655Z,6.87
2019-04-10T17:47:55.258Z,6.57
2019-04-10T17:53:02.818Z,6.26
2019-04-10T17:58:09.457Z,6.15
2019-04-10T18:03:18.365Z,6.20
2019-04-10T18:08:26.411Z,6.06
2019-04-10T18:13:31.141Z,5.68
2019-04-10T18:18:37.981Z,5.70
2019-04-10T18:23:43.997Z,5.59
2019-04-10T18:28:52.024Z,5.21
2019-04-10T18:34:00.739Z,5.33
2019-04-10T18:39:12.486Z,5.24
2019-04-10T18:44:17.385Z,5.10
2019-04-10T18:49:23.246Z,5.16
2019-04-10T18:54:40.211Z,5.04
2019-04-10T18:59:47.647Z,4.97
2019-04-10T19:04:55.287Z,4.96
2019-04-10T19:10:02.179Z,4.61
2019-04-10T19:15:09.209Z,4.62
2019-04-10T19:20:17.986Z,4.68
2019-04-10T19:25:24.898Z,4.59
2019-04-10T19:30:45.685Z,4.36
2019-04-10T19:35:51.637Z,4.16
2019-04-10T19:40:58.434Z,4.19
2019-04-10T19:46:04.400Z,4.18
2019-04-10T19:51:10.374Z,3.96
2019-04-10T19:56:16.313Z,3.97
2019-04-10T20:01:24.514Z,3.91
2019-04-10T20:06:30.170Z,3.85
2019-04-10T20:11:40.316Z,3.85
2019-04-10T20:16:44.031Z,3.74
2019-04-10T20:21:50.369Z,3.55
2019-04-10T20:26:56.479Z,3.74
2019-04-10T20:32:02.721Z,3.63
2019-04-10T20:37:11.310Z,3.65
2019-04-10T20:42:18.215Z,3.54
2019-04-10T20:47:24.677Z,3.47
2019-04-10T20:52:30.775Z,3.31
2019-04-10T20:57:37.486Z,3.11
2019-04-10T21:02:44.562Z,3.04
2019-04-10T21:07:50.629Z,3.14
2019-04-10T21:12:58.418Z,3.09
2019-04-10T21:18:05.102Z,3.36
2019-04-10T21:23:11.072Z,3.21
2019-04-10T21:28:16.878Z,3.04
2019-04-10T21:33:37.310Z,3.07
2019-04-10T21:38:43.166Z,3.05
2019-04-10T21:43:50.876Z,2.90
2019-04-10T21:48:57.357Z,2.93
2019-04-10T21:54:04.361Z,2.83
2019-04-10T21:59:11.096Z,2.98
2019-04-10T22:04:17.435Z,2.65
2019-04-10T22:09:24.757Z,2.63
2019-04-10T22:14:30.622Z,2.77
2019-04-10T22:19:38.015Z,2.62
2019-04-10T22:24:44.095Z,2.33
2019-04-10T22:29:50.069Z,2.56
2019-04-10T22:34:57.017Z,2.49
2019-04-10T22:40:02.859Z,2.30
2019-04-10T22:45:27.399Z,2.38
2019-04-10T22:50:34.509Z,2.14
2019-04-10T22:55:42.323Z,2.22
2019-04-10T23:00:48.490Z,2.14
2019-04-10T23:05:54.553Z,2.10
2019-04-10T23:11:01.385Z,2.07
2019-04-10T23:16:08.993Z,2.10
2019-04-10T23:21:14.884Z,1.95
2019-04-10T23:26:20.790Z,1.80
2019-04-10T23:31:27.887Z,1.79
2019-04-10T23:36:34.085Z,1.73
2019-04-10T23:41:40.055Z,1.72
2019-04-10T23:46:47.459Z,1.79
2019-04-10T23:51:53.685Z,1.84
2019-04-10T23:56:59.706Z,1.77
